createdAt,value
2018-06-19T00:00:09.465Z,1010.53
2018-06-19T00:01:09.464Z,1010.53
2018-06-19T00:02:09.465Z,1010.53
2018-06-19T00:03:09.466Z,1010.58
2018-06-19T00:04:09.468Z,1010.53
2018-06-19T00:05:09.470Z,1010.54
2018-06-19T00:06:09.470Z,1010.55
2018-06-19T00:07:09.472Z,1010.57
2018-06-19T00:08:09.474Z,1010.56
2018-06-19T00:09:09.475Z,1010.56
2018-06-19T00:10:09.476Z,1010.57
2018-06-19T00:11:09.478Z,1010.56
2018-06-19T00:12:09.478Z,1010.51
2018-06-19T00:13:09.481Z,1010.51
2018-06-19T00:14:09.481Z,1010.55
2018-06-19T00:15:09.482Z,1010.55
2018-06-19T00:16:09.485Z,1010.51
2018-06-19T00:17:09.485Z,1010.59
2018-06-19T00:18:09.485Z,1010.57
2018-06-19T00:19:09.487Z,1010.54
2018-06-19T00:20:09.488Z,1010.57
2018-06-19T00:21:09.495Z,1010.57
2018-06-19T00:22:09.490Z,1010.53
2018-06-19T00:23:09.491Z,1010.56
2018-06-19T00:24:09.496Z,1010.51
2018-06-19T00:25:09.496Z,1010.53
2018-06-19T00:26:09.496Z,1010.53
2018-06-19T00:27:09.500Z,1010.57
2018-06-19T00:28:09.499Z,1010.53
2018-06-19T00:29:09.499Z,1010.55
2018-06-19T00:30:09.500Z,1010.57
2018-06-19T00:31:09.502Z,1010.63
2018-06-19T00:32:09.503Z,1010.64
2018-06-19T00:33:09.505Z,1010.59
2018-06-19T00:34:09.505Z,1010.58
2018-06-19T00:35:09.506Z,1010.57
2018-06-19T00:36:09.511Z,1010.54
2018-06-19T00:37:09.513Z,1010.56
2018-06-19T00:38:09.510Z,1010.55
2018-06-19T00:39:09.512Z,1010.61
2018-06-19T00:40:09.512Z,1010.60
2018-06-19T00:41:09.515Z,1010.63
2018-06-19T00:42:09.515Z,1010.55
2018-06-19T00:43:09.517Z,1010.56
2018-06-19T00:44:09.518Z,1010.57
2018-06-19T00:45:09.519Z,1010.59
2018-06-19T00:46:09.520Z,1010.57
2018-06-19T00:47:09.522Z,1010.57
2018-06-19T00:48:09.521Z,1010.60
2018-06-19T00:49:09.525Z,1010.54
2018-06-19T00:50:09.525Z,1010.57
2018-06-19T00:51:09.527Z,1010.55
2018-06-19T00:52:09.529Z,1010.56
2018-06-19T00:53:09.531Z,1010.57
2018-06-19T00:54:09.531Z,1010.55
2018-06-19T00:55:09.532Z,1010.52
2018-06-19T00:56:09.534Z,1010.57
2018-06-19T00:57:09.540Z,1010.60
2018-06-19T00:58:09.536Z,1010.59
2018-06-19T00:59:09.538Z,1010.60
2018-06-19T01:00:09.539Z,1010.61
2018-06-19T01:01:09.543Z,1010.55
2018-06-19T01:02:09.547Z,1010.62
2018-06-19T01:03:09.543Z,1010.58
2018-06-19T01:04:09.546Z,1010.56
2018-06-19T01:05:09.547Z,1010.57
2018-06-19T01:06:09.547Z,1010.55
2018-06-19T01:07:09.548Z,1010.57
2018-06-19T01:08:09.551Z,1010.59
2018-06-19T01:09:09.553Z,1010.67
2018-06-19T01:10:09.554Z,1010.63
2018-06-19T01:11:09.555Z,1010.63
2018-06-19T01:12:09.557Z,1010.60
2018-06-19T01:13:09.559Z,1010.58
2018-06-19T01:14:09.559Z,1010.56
2018-06-19T01:15:09.561Z,1010.60
2018-06-19T01:16:09.562Z,1010.59
2018-06-19T01:17:09.565Z,1010.56
2018-06-19T01:18:09.565Z,1010.54
2018-06-19T01:19:09.567Z,1010.53
2018-06-19T01:20:09.568Z,1010.57
2018-06-19T01:21:09.571Z,1010.59
2018-06-19T01:22:09.571Z,1010.60
2018-06-19T01:23:09.573Z,1010.52
2018-06-19T01:24:09.575Z,1010.55
2018-06-19T01:25:09.576Z,1010.54
2018-06-19T01:26:09.577Z,1010.54
2018-06-19T01:27:09.581Z,1010.56
2018-06-19T01:28:09.581Z,1010.58
2018-06-19T01:29:09.583Z,1010.57
2018-06-19T01:30:09.583Z,1010.58
2018-06-19T01:31:09.586Z,1010.59
2018-06-19T01:32:09.591Z,1010.63
2018-06-19T01:33:09.593Z,1010.61
2018-06-19T01:34:09.590Z,1010.60
2018-06-19T01:35:09.592Z,1010.60
2018-06-19T01:36:09.594Z,1010.60
2018-06-19T01:37:09.596Z,1010.60
2018-06-19T01:38:09.714Z,1010.59
2018-06-19T01:39:09.600Z,1010.59
2018-06-19T01:40:09.602Z,1010.61
2018-06-19T01:41:09.605Z,1010.61
2018-06-19T01:42:09.604Z,1010.61
2018-06-19T01:43:09.606Z,1010.58
2018-06-19T01:44:09.608Z,1010.61
2018-06-19T01:45:09.609Z,1010.60
2018-06-19T01:46:09.609Z,1010.60
2018-06-19T01:47:09.612Z,1010.56
2018-06-19T01:48:09.613Z,1010.57
2018-06-19T01:49:09.614Z,1010.58
2018-06-19T01:50:09.618Z,1010.58
2018-06-19T01:51:09.617Z,1010.51
2018-06-19T01:52:09.619Z,1010.53
2018-06-19T01:53:09.621Z,1010.56
2018-06-19T01:54:09.622Z,1010.55
2018-06-19T01:55:09.624Z,1010.58
2018-06-19T01:56:09.625Z,1010.60
2018-06-19T01:57:09.629Z,1010.59
2018-06-19T01:58:09.627Z,1010.62
2018-06-19T01:59:09.629Z,1010.63
2018-06-19T02:00:09.634Z,1010.63
2018-06-19T02:01:09.633Z,1010.58
2018-06-19T02:02:09.634Z,1010.59
2018-06-19T02:03:09.634Z,1010.59
2018-06-19T02:04:09.638Z,1010.62
2018-06-19T02:05:09.638Z,1010.61
2018-06-19T02:06:09.640Z,1010.61
2018-06-19T02:07:09.640Z,1010.61
2018-06-19T02:08:09.642Z,1010.63
2018-06-19T02:09:09.643Z,1010.63
2018-06-19T02:10:09.645Z,1010.61
2018-06-19T02:11:09.645Z,1010.59
2018-06-19T02:12:09.648Z,1010.58
2018-06-19T02:13:09.649Z,1010.61
2018-06-19T02:14:09.651Z,1010.57
2018-06-19T02:15:09.651Z,1010.59
2018-06-19T02:16:09.654Z,1010.57
2018-06-19T02:17:09.655Z,1010.59
2018-06-19T02:18:09.655Z,1010.56
2018-06-19T02:19:09.658Z,1010.53
2018-06-19T02:20:09.664Z,1010.55
2018-06-19T02:21:09.660Z,1010.59
2018-06-19T02:22:09.659Z,1010.59
2018-06-19T02:23:09.662Z,1010.56
2018-06-19T02:24:09.663Z,1010.55
2018-06-19T02:25:09.665Z,1010.53
2018-06-19T02:26:09.666Z,1010.51
2018-06-19T02:27:09.668Z,1010.53
2018-06-19T02:28:09.669Z,1010.55
2018-06-19T02:29:09.670Z,1010.56
2018-06-19T02:30:09.671Z,1010.58
2018-06-19T02:31:09.681Z,1010.54
2018-06-19T02:32:09.674Z,1010.56
2018-06-19T02:33:09.676Z,1010.57
2018-06-19T02:34:09.677Z,1010.57
2018-06-19T02:35:09.678Z,1010.56
2018-06-19T02:36:09.680Z,1010.52
2018-06-19T02:37:09.681Z,1010.53
2018-06-19T02:38:09.682Z,1010.51
2018-06-19T02:39:09.683Z,1010.52
2018-06-19T02:40:09.685Z,1010.53
2018-06-19T02:41:09.686Z,1010.53
2018-06-19T02:42:09.687Z,1010.49
2018-06-19T02:43:09.687Z,1010.54
2018-06-19T02:44:09.690Z,1010.53
2018-06-19T02:45:09.692Z,1010.54
2018-06-19T02:46:09.692Z,1010.53
2018-06-19T02:47:09.700Z,1010.53
2018-06-19T02:48:09.698Z,1010.52
2018-06-19T02:49:09.698Z,1010.49
2018-06-19T02:50:09.698Z,1010.47
2018-06-19T02:51:09.699Z,1010.46
2018-06-19T02:52:09.701Z,1010.50
2018-06-19T02:53:09.702Z,1010.51
2018-06-19T02:54:09.701Z,1010.53
2018-06-19T02:55:09.706Z,1010.51
2018-06-19T02:56:09.706Z,1010.52
2018-06-19T02:57:09.709Z,1010.53
2018-06-19T02:58:09.708Z,1010.51
2018-06-19T02:59:09.713Z,1010.54
2018-06-19T03:00:09.711Z,1010.52
2018-06-19T03:01:09.713Z,1010.56
2018-06-19T03:02:09.713Z,1010.57
2018-06-19T03:03:09.715Z,1010.52
2018-06-19T03:04:09.725Z,1010.50
2018-06-19T03:05:09.718Z,1010.58
2018-06-19T03:06:09.718Z,1010.55
2018-06-19T03:07:09.720Z,1010.58
2018-06-19T03:08:09.722Z,1010.55
2018-06-19T03:09:09.723Z,1010.57
2018-06-19T03:10:09.724Z,1010.58
2018-06-19T03:11:09.726Z,1010.59
2018-06-19T03:12:09.729Z,1010.59
2018-06-19T03:13:09.728Z,1010.62
2018-06-19T03:14:09.729Z,1010.63
2018-06-19T03:15:09.731Z,1010.67
2018-06-19T03:16:09.784Z,1010.63
2018-06-19T03:17:09.734Z,1010.69
2018-06-19T03:18:09.735Z,1010.70
2018-06-19T03:19:09.740Z,1010.70
2018-06-19T03:20:09.740Z,1010.76
2018-06-19T03:21:09.739Z,1010.74
2018-06-19T03:22:09.741Z,1010.81
2018-06-19T03:23:09.741Z,1010.80
2018-06-19T03:24:09.746Z,1010.78
2018-06-19T03:25:09.744Z,1010.80
2018-06-19T03:26:09.747Z,1010.80
2018-06-19T03:27:09.747Z,1010.83
2018-06-19T03:28:09.748Z,1010.77
2018-06-19T03:29:09.750Z,1010.82
2018-06-19T03:30:09.845Z,1010.86
2018-06-19T03:31:09.762Z,1010.85
2018-06-19T03:32:09.755Z,1010.84
2018-06-19T03:33:09.756Z,1010.78
2018-06-19T03:34:09.756Z,1010.83
2018-06-19T03:35:09.757Z,1010.83
2018-06-19T03:36:09.758Z,1010.79
2018-06-19T03:37:09.761Z,1010.82
2018-06-19T03:38:09.761Z,1010.81
2018-06-19T03:39:09.764Z,1010.85
2018-06-19T03:40:09.764Z,1010.88
2018-06-19T03:41:09.767Z,1010.93
2018-06-19T03:42:09.765Z,1010.93
2018-06-19T03:43:09.768Z,1010.91
2018-06-19T03:44:09.769Z,1010.94
2018-06-19T03:45:09.771Z,1010.95
2018-06-19T03:46:09.772Z,1010.94
2018-06-19T03:47:09.773Z,1010.95
2018-06-19T03:48:09.775Z,1011.00
2018-06-19T03:49:09.777Z,1011.01
2018-06-19T03:50:09.777Z,1010.99
2018-06-19T03:51:09.780Z,1010.99
2018-06-19T03:52:09.783Z,1011.05
2018-06-19T03:53:09.783Z,1011.08
2018-06-19T03:54:09.784Z,1011.08
2018-06-19T03:55:09.785Z,1011.08
2018-06-19T03:56:09.791Z,1011.07
2018-06-19T03:57:09.790Z,1011.02
2018-06-19T03:58:09.788Z,1011.03
2018-06-19T03:59:09.790Z,1011.06
2018-06-19T04:00:09.792Z,1011.11
2018-06-19T04:01:09.793Z,1011.09
2018-06-19T04:02:09.802Z,1011.03
2018-06-19T04:03:09.795Z,1011.13
2018-06-19T04:04:09.798Z,1011.11
2018-06-19T04:05:09.802Z,1011.12
2018-06-19T04:06:09.800Z,1011.08
2018-06-19T04:07:09.801Z,1011.08
2018-06-19T04:08:09.803Z,1011.16
2018-06-19T04:09:09.805Z,1011.16
2018-06-19T04:10:09.809Z,1011.15
2018-06-19T04:11:09.807Z,1011.17
2018-06-19T04:12:09.808Z,1011.17
2018-06-19T04:13:09.810Z,1011.24
2018-06-19T04:14:09.811Z,1011.17
2018-06-19T04:15:09.816Z,1011.19
2018-06-19T04:16:09.814Z,1011.19
2018-06-19T04:17:09.877Z,1011.23
2018-06-19T04:18:09.816Z,1011.21
2018-06-19T04:19:09.818Z,1011.17
2018-06-19T04:20:09.820Z,1011.18
2018-06-19T04:21:09.821Z,1011.21
2018-06-19T04:22:09.822Z,1011.21
2018-06-19T04:23:09.825Z,1011.17
2018-06-19T04:24:09.825Z,1011.12
2018-06-19T04:25:09.829Z,1011.13
2018-06-19T04:26:09.827Z,1011.16
2018-06-19T04:27:09.829Z,1011.21
2018-06-19T04:28:09.832Z,1011.20
2018-06-19T04:29:09.833Z,1011.22
2018-06-19T04:30:09.833Z,1011.18
2018-06-19T04:31:09.837Z,1011.25
2018-06-19T04:32:09.836Z,1011.23
2018-06-19T04:33:09.837Z,1011.20
2018-06-19T04:34:09.840Z,1011.21
2018-06-19T04:35:09.840Z,1011.23
2018-06-19T04:36:09.842Z,1011.26
2018-06-19T04:37:09.842Z,1011.23
2018-06-19T04:38:09.845Z,1011.27
2018-06-19T04:39:09.846Z,1011.19
2018-06-19T04:40:09.849Z,1011.22
2018-06-19T04:41:09.849Z,1011.23
2018-06-19T04:42:09.883Z,1011.20
2018-06-19T04:43:09.851Z,1011.23
2018-06-19T04:44:09.853Z,1011.18
2018-06-19T04:45:09.855Z,1011.18
2018-06-19T04:46:09.855Z,1011.15
2018-06-19T04:47:09.858Z,1011.19
2018-06-19T04:48:09.859Z,1011.24
2018-06-19T04:49:09.860Z,1011.27
2018-06-19T04:50:09.860Z,1011.24
2018-06-19T04:51:09.862Z,1011.29
2018-06-19T04:52:09.864Z,1011.29
2018-06-19T04:53:09.867Z,1011.32
2018-06-19T04:54:09.865Z,1011.36
2018-06-19T04:55:09.868Z,1011.37
2018-06-19T04:56:09.869Z,1011.38
2018-06-19T04:57:09.871Z,1011.38
2018-06-19T04:58:09.871Z,1011.41
2018-06-19T04:59:09.874Z,1011.34
2018-06-19T05:00:09.875Z,1011.38
2018-06-19T05:01:09.877Z,1011.34
2018-06-19T05:02:09.881Z,1011.39
2018-06-19T05:03:09.878Z,1011.37
2018-06-19T05:04:09.880Z,1011.39
2018-06-19T05:05:09.884Z,1011.44
2018-06-19T05:06:09.885Z,1011.44
2018-06-19T05:07:09.885Z,1011.42
2018-06-19T05:08:09.886Z,1011.41
2018-06-19T05:09:09.888Z,1011.41
2018-06-19T05:10:09.889Z,1011.41
2018-06-19T05:11:09.890Z,1011.37
2018-06-19T05:12:09.892Z,1011.42
2018-06-19T05:13:09.893Z,1011.40
2018-06-19T05:14:09.894Z,1011.41
2018-06-19T05:15:09.896Z,1011.40
2018-06-19T05:16:09.901Z,1011.40
2018-06-19T05:17:09.899Z,1011.38
2018-06-19T05:18:09.904Z,1011.41
2018-06-19T05:19:09.902Z,1011.38
2018-06-19T05:20:09.958Z,1011.34
2018-06-19T05:21:09.905Z,1011.37
2018-06-19T05:22:09.906Z,1011.39
2018-06-19T05:23:09.908Z,1011.43
2018-06-19T05:24:09.910Z,1011.42
2018-06-19T05:25:09.915Z,1011.38
2018-06-19T05:26:09.913Z,1011.42
2018-06-19T05:27:09.914Z,1011.40
2018-06-19T05:28:09.918Z,1011.44
2018-06-19T05:29:09.918Z,1011.44
2018-06-19T05:30:09.921Z,1011.49
2018-06-19T05:31:09.921Z,1011.47
2018-06-19T05:32:09.926Z,1011.52
2018-06-19T05:33:09.925Z,1011.50
2018-06-19T05:34:09.926Z,1011.53
2018-06-19T05:35:09.928Z,1011.53
2018-06-19T05:36:09.930Z,1011.51
2018-06-19T05:37:09.932Z,1011.54
2018-06-19T05:38:09.936Z,1011.56
2018-06-19T05:39:09.935Z,1011.56
2018-06-19T05:40:09.936Z,1011.58
2018-06-19T05:41:09.939Z,1011.57
2018-06-19T05:42:09.939Z,1011.57
2018-06-19T05:43:09.947Z,1011.58
2018-06-19T05:44:09.943Z,1011.61
2018-06-19T05:45:09.946Z,1011.64
2018-06-19T05:46:09.994Z,1011.64
2018-06-19T05:47:09.953Z,1011.66
2018-06-19T05:48:09.950Z,1011.64
2018-06-19T05:49:09.953Z,1011.68
2018-06-19T05:50:09.953Z,1011.75
2018-06-19T05:51:09.955Z,1011.69
2018-06-19T05:52:09.960Z,1011.75
2018-06-19T05:53:09.960Z,1011.79
2018-06-19T05:54:09.962Z,1011.81
2018-06-19T05:55:09.963Z,1011.82
2018-06-19T05:56:09.986Z,1011.85
2018-06-19T05:57:09.966Z,1011.81
2018-06-19T05:58:09.968Z,1011.86
2018-06-19T05:59:09.970Z,1011.89
2018-06-19T06:00:09.986Z,1011.91
2018-06-19T06:01:09.974Z,1011.90
2018-06-19T06:02:09.975Z,1011.87
2018-06-19T06:03:09.977Z,1011.89
2018-06-19T06:04:09.978Z,1011.90
2018-06-19T06:05:09.981Z,1011.89
2018-06-19T06:06:09.982Z,1011.99
2018-06-19T06:07:09.988Z,1011.92
2018-06-19T06:08:09.987Z,1011.91
2018-06-19T06:09:09.988Z,1011.88
2018-06-19T06:10:09.989Z,1011.97
2018-06-19T06:11:10.003Z,1011.95
2018-06-19T06:12:09.993Z,1012.01
2018-06-19T06:13:09.996Z,1011.99
2018-06-19T06:14:09.996Z,1012.02
2018-06-19T06:15:09.999Z,1012.05
2018-06-19T06:16:10.001Z,1012.02
2018-06-19T06:17:10.015Z,1012.06
2018-06-19T06:18:10.003Z,1012.02
2018-06-19T06:19:10.006Z,1012.08
2018-06-19T06:20:10.008Z,1012.06
2018-06-19T06:21:10.012Z,1012.07
2018-06-19T06:22:10.020Z,1012.11
2018-06-19T06:23:10.014Z,1012.10
2018-06-19T06:24:10.016Z,1012.09
2018-06-19T06:25:10.018Z,1012.13
2018-06-19T06:26:10.020Z,1012.13
2018-06-19T06:27:10.021Z,1012.21
2018-06-19T06:28:10.023Z,1012.25
2018-06-19T06:29:10.025Z,1012.22
2018-06-19T06:30:10.028Z,1012.17
2018-06-19T06:31:10.029Z,1012.15
2018-06-19T06:32:10.032Z,1012.20
2018-06-19T06:33:10.033Z,1012.17
2018-06-19T06:34:10.035Z,1012.23
2018-06-19T06:35:10.037Z,1012.22
2018-06-19T06:36:10.039Z,1012.27
2018-06-19T06:37:10.041Z,1012.25
2018-06-19T06:38:10.042Z,1012.20
2018-06-19T06:39:10.044Z,1012.29
2018-06-19T06:40:10.047Z,1012.21
2018-06-19T06:41:10.049Z,1012.30
2018-06-19T06:42:10.050Z,1012.26
2018-06-19T06:43:10.053Z,1012.25
2018-06-19T06:44:10.057Z,1012.31
2018-06-19T06:45:10.057Z,1012.28
2018-06-19T06:46:10.059Z,1012.26
2018-06-19T06:47:10.064Z,1012.26
2018-06-19T06:48:10.064Z,1012.25
2018-06-19T06:49:10.066Z,1012.23
2018-06-19T06:50:10.141Z,1012.30
2018-06-19T06:51:10.069Z,1012.29
2018-06-19T06:52:10.075Z,1012.29
2018-06-19T06:53:10.074Z,1012.31
2018-06-19T06:54:10.076Z,1012.27
2018-06-19T06:55:10.078Z,1012.29
2018-06-19T06:56:10.082Z,1012.30
2018-06-19T06:57:10.084Z,1012.29
2018-06-19T06:58:10.085Z,1012.28
2018-06-19T06:59:10.087Z,1012.24
2018-06-19T07:00:10.092Z,1012.31
2018-06-19T07:01:10.101Z,1012.31
2018-06-19T07:02:10.095Z,1012.28
2018-06-19T07:03:10.097Z,1012.30
2018-06-19T07:04:10.102Z,1012.31
2018-06-19T07:05:10.104Z,1012.30
2018-06-19T07:06:10.104Z,1012.33
2018-06-19T07:07:10.109Z,1012.34
2018-06-19T07:08:10.112Z,1012.35
2018-06-19T07:09:10.112Z,1012.32
2018-06-19T07:10:10.144Z,1012.41
2018-06-19T07:11:10.118Z,1012.38
2018-06-19T07:12:10.119Z,1012.38
2018-06-19T07:13:10.123Z,1012.38
2018-06-19T07:14:10.124Z,1012.45
2018-06-19T07:15:10.126Z,1012.43
2018-06-19T07:16:10.130Z,1012.47
2018-06-19T07:17:10.133Z,1012.43
2018-06-19T07:18:10.135Z,1012.41
2018-06-19T07:19:10.193Z,1012.41
2018-06-19T07:20:10.140Z,1012.42
2018-06-19T07:21:10.142Z,1012.42
2018-06-19T07:22:10.144Z,1012.45
2018-06-19T07:23:10.147Z,1012.45
2018-06-19T07:24:10.151Z,1012.54
2018-06-19T07:25:10.153Z,1012.53
2018-06-19T07:26:10.177Z,1012.51
2018-06-19T07:27:10.156Z,1012.52
2018-06-19T07:28:10.160Z,1012.53
2018-06-19T07:29:10.161Z,1012.57
2018-06-19T07:30:10.162Z,1012.57
2018-06-19T07:31:10.167Z,1012.59
2018-06-19T07:32:10.169Z,1012.61
2018-06-19T07:33:10.171Z,1012.65
2018-06-19T07:34:10.173Z,1012.68
2018-06-19T07:35:10.176Z,1012.63
2018-06-19T07:36:10.179Z,1012.65
2018-06-19T07:37:10.181Z,1012.64
2018-06-19T07:38:10.242Z,1012.64
2018-06-19T07:39:10.189Z,1012.68
2018-06-19T07:40:10.194Z,1012.69
2018-06-19T07:41:10.192Z,1012.66
2018-06-19T07:42:10.195Z,1012.66
2018-06-19T07:43:10.197Z,1012.66
2018-06-19T07:44:10.248Z,1012.69
2018-06-19T07:45:10.203Z,1012.73
2018-06-19T07:46:10.209Z,1012.75
2018-06-19T07:47:10.209Z,1012.77
2018-06-19T07:48:10.212Z,1012.82
2018-06-19T07:49:10.214Z,1012.83
2018-06-19T07:50:10.218Z,1012.82
2018-06-19T07:51:10.223Z,1012.81
2018-06-19T07:52:10.223Z,1012.83
2018-06-19T07:53:10.226Z,1012.82
2018-06-19T07:54:10.228Z,1012.88
2018-06-19T07:55:10.231Z,1012.86
2018-06-19T07:56:10.236Z,1012.89
2018-06-19T07:57:10.242Z,1012.91
2018-06-19T07:58:10.240Z,1012.89
2018-06-19T07:59:10.243Z,1012.91
2018-06-19T08:00:10.247Z,1012.90
2018-06-19T08:01:10.251Z,1012.92
2018-06-19T08:02:10.252Z,1012.94
2018-06-19T08:03:10.256Z,1012.95
2018-06-19T08:04:10.259Z,1012.95
2018-06-19T08:05:10.262Z,1012.93
2018-06-19T08:06:10.264Z,1012.93
2018-06-19T08:07:10.268Z,1012.90
2018-06-19T08:08:10.274Z,1012.91
2018-06-19T08:09:10.275Z,1012.96
2018-06-19T08:10:10.277Z,1012.95
2018-06-19T08:11:10.280Z,1012.98
2018-06-19T08:12:10.285Z,1012.97
2018-06-19T08:13:10.290Z,1012.97
2018-06-19T08:14:10.290Z,1013.03
2018-06-19T08:15:10.295Z,1013.00
2018-06-19T08:16:10.297Z,1012.99
2018-06-19T08:17:10.301Z,1013.11
2018-06-19T08:18:10.303Z,1013.04
2018-06-19T08:19:10.306Z,1013.03
2018-06-19T08:20:10.309Z,1013.05
2018-06-19T08:21:10.313Z,1013.09
2018-06-19T08:22:10.317Z,1013.08
2018-06-19T08:23:10.321Z,1013.09
2018-06-19T08:24:10.373Z,1013.04
2018-06-19T08:25:10.326Z,1013.03
2018-06-19T08:26:10.328Z,1013.07
2018-06-19T08:27:10.333Z,1013.12
2018-06-19T08:28:10.335Z,1013.09
2018-06-19T08:29:10.340Z,1013.08
2018-06-19T08:30:10.341Z,1013.12
2018-06-19T08:31:10.347Z,1013.14
2018-06-19T08:32:10.349Z,1013.10
2018-06-19T08:33:10.352Z,1013.09
2018-06-19T08:34:10.355Z,1013.06
2018-06-19T08:35:10.359Z,1013.08
2018-06-19T08:36:10.369Z,1013.08
2018-06-19T08:37:10.365Z,1013.08
2018-06-19T08:38:10.370Z,1013.18
2018-06-19T08:39:10.375Z,1013.11
2018-06-19T08:40:10.377Z,1013.11
2018-06-19T08:41:10.380Z,1013.10
2018-06-19T08:42:10.383Z,1013.11
2018-06-19T08:43:10.386Z,1013.16
2018-06-19T08:44:10.390Z,1013.16
2018-06-19T08:45:10.394Z,1013.20
2018-06-19T08:46:10.398Z,1013.23
2018-06-19T08:47:10.402Z,1013.27
2018-06-19T08:48:10.404Z,1013.24
2018-06-19T08:49:10.410Z,1013.18
2018-06-19T08:50:10.411Z,1013.17
2018-06-19T08:51:10.416Z,1013.20
2018-06-19T08:52:10.421Z,1013.21
2018-06-19T08:53:10.424Z,1013.16
2018-06-19T08:54:10.427Z,1013.11
2018-06-19T08:55:10.489Z,1013.22
2018-06-19T08:56:10.436Z,1013.19
2018-06-19T08:57:10.442Z,1013.20
2018-06-19T08:58:10.444Z,1013.29
2018-06-19T08:59:10.449Z,1013.23
2018-06-19T09:00:10.476Z,1013.31
2018-06-19T09:01:10.457Z,1013.28
2018-06-19T09:02:10.464Z,1013.30
2018-06-19T09:03:10.466Z,1013.29
2018-06-19T09:04:10.474Z,1013.29
2018-06-19T09:05:10.476Z,1013.35
2018-06-19T09:06:10.480Z,1013.32
2018-06-19T09:07:10.483Z,1013.28
2018-06-19T09:08:10.489Z,1013.26
2018-06-19T09:09:10.494Z,1013.26
2018-06-19T09:10:10.498Z,1013.32
2018-06-19T09:11:10.503Z,1013.34
2018-06-19T09:12:10.510Z,1013.31
2018-06-19T09:13:10.513Z,1013.35
2018-06-19T09:14:10.517Z,1013.35
2018-06-19T09:15:10.526Z,1013.37
2018-06-19T09:16:10.528Z,1013.37
2018-06-19T09:17:10.534Z,1013.35
2018-06-19T09:18:10.536Z,1013.37
2018-06-19T09:19:10.541Z,1013.34
2018-06-19T09:20:10.579Z,1013.43
2018-06-19T09:21:10.552Z,1013.38
2018-06-19T09:22:10.555Z,1013.40
2018-06-19T09:23:10.564Z,1013.35
2018-06-19T09:24:10.571Z,1013.35
2018-06-19T09:25:10.571Z,1013.37
2018-06-19T09:26:10.574Z,1013.39
2018-06-19T09:27:10.580Z,1013.39
2018-06-19T09:28:10.589Z,1013.40
2018-06-19T09:29:10.590Z,1013.40
2018-06-19T09:30:10.594Z,1013.40
2018-06-19T09:31:10.602Z,1013.39
2018-06-19T09:32:10.603Z,1013.47
2018-06-19T09:33:10.612Z,1013.45
2018-06-19T09:34:10.613Z,1013.43
2018-06-19T09:35:10.619Z,1013.42
2018-06-19T09:36:10.624Z,1013.43
2018-06-19T09:37:10.629Z,1013.38
2018-06-19T09:38:10.632Z,1013.41
2018-06-19T09:39:10.639Z,1013.41
2018-06-19T09:40:10.644Z,1013.42
2018-06-19T09:41:10.649Z,1013.41
2018-06-19T09:42:10.654Z,1013.44
2018-06-19T09:43:10.662Z,1013.45
2018-06-19T09:44:10.666Z,1013.49
2018-06-19T09:45:10.670Z,1013.47
2018-06-19T09:46:10.674Z,1013.45
2018-06-19T09:47:10.685Z,1013.45
2018-06-19T09:48:10.689Z,1013.50
2018-06-19T09:49:10.691Z,1013.49
2018-06-19T09:50:10.697Z,1013.43
2018-06-19T09:51:10.700Z,1013.47
2018-06-19T09:52:10.706Z,1013.45
2018-06-19T09:53:10.712Z,1013.47
2018-06-19T09:54:10.717Z,1013.45
2018-06-19T09:55:10.725Z,1013.46
2018-06-19T09:56:10.728Z,1013.45
2018-06-19T09:57:10.734Z,1013.42
2018-06-19T09:58:10.738Z,1013.46
2018-06-19T09:59:10.824Z,1013.53
2018-06-19T10:00:10.750Z,1013.46
2018-06-19T10:01:10.761Z,1013.52
2018-06-19T10:02:10.760Z,1013.50
2018-06-19T10:03:10.766Z,1013.49
2018-06-19T10:04:10.773Z,1013.48
2018-06-19T10:05:10.777Z,1013.47
2018-06-19T10:06:10.798Z,1013.51
2018-06-19T10:07:10.789Z,1013.44
2018-06-19T10:08:10.792Z,1013.45
2018-06-19T10:09:10.799Z,1013.42
2018-06-19T10:10:10.804Z,1013.42
2018-06-19T10:11:10.809Z,1013.39
2018-06-19T10:12:10.862Z,1013.40
2018-06-19T10:13:10.821Z,1013.40
2018-06-19T10:14:10.825Z,1013.43
2018-06-19T10:15:10.831Z,1013.49
2018-06-19T10:16:10.841Z,1013.51
2018-06-19T10:17:10.843Z,1013.52
2018-06-19T10:18:10.847Z,1013.41
2018-06-19T10:19:10.852Z,1013.46
2018-06-19T10:20:10.859Z,1013.45
2018-06-19T10:21:10.865Z,1013.46
2018-06-19T10:22:10.869Z,1013.50
2018-06-19T10:23:10.875Z,1013.46
2018-06-19T10:24:10.881Z,1013.51
2018-06-19T10:25:10.889Z,1013.45
2018-06-19T10:26:10.890Z,1013.46
2018-06-19T10:27:10.897Z,1013.48
2018-06-19T10:28:10.903Z,1013.49
2018-06-19T10:29:10.914Z,1013.52
2018-06-19T10:30:10.914Z,1013.57
2018-06-19T10:31:10.919Z,1013.52
2018-06-19T10:32:10.927Z,1013.48
2018-06-19T10:33:10.933Z,1013.50
2018-06-19T10:34:10.937Z,1013.54
2018-06-19T10:35:10.945Z,1013.56
2018-06-19T10:36:10.951Z,1013.53
2018-06-19T10:37:10.955Z,1013.54
2018-06-19T10:38:10.960Z,1013.52
2018-06-19T10:39:10.966Z,1013.53
2018-06-19T10:40:11.006Z,1013.56
2018-06-19T10:41:10.980Z,1013.56
2018-06-19T10:42:10.982Z,1013.57
2018-06-19T10:43:10.988Z,1013.57
2018-06-19T10:44:10.994Z,1013.56
2018-06-19T10:45:10.999Z,1013.58
2018-06-19T10:46:11.007Z,1013.59
2018-06-19T10:47:11.009Z,1013.54
2018-06-19T10:48:11.015Z,1013.55
2018-06-19T10:49:11.021Z,1013.61
2018-06-19T10:50:11.027Z,1013.57
2018-06-19T10:51:11.033Z,1013.63
2018-06-19T10:52:11.039Z,1013.63
2018-06-19T10:53:11.044Z,1013.64
2018-06-19T10:54:11.049Z,1013.67
2018-06-19T10:55:11.053Z,1013.61
2018-06-19T10:56:11.060Z,1013.60
2018-06-19T10:57:11.067Z,1013.65
2018-06-19T10:58:11.070Z,1013.64
2018-06-19T10:59:11.077Z,1013.62
2018-06-19T11:00:11.083Z,1013.64
2018-06-19T11:01:11.089Z,1013.63
2018-06-19T11:02:11.094Z,1013.64
2018-06-19T11:03:11.101Z,1013.68
2018-06-19T11:04:11.107Z,1013.70
2018-06-19T11:05:11.142Z,1013.67
2018-06-19T11:06:11.118Z,1013.66
2018-06-19T11:07:11.185Z,1013.65
2018-06-19T11:08:11.177Z,1013.68
2018-06-19T11:09:11.138Z,1013.69
2018-06-19T11:10:11.141Z,1013.71
2018-06-19T11:11:11.148Z,1013.72
2018-06-19T11:12:11.154Z,1013.74
2018-06-19T11:13:11.161Z,1013.71
2018-06-19T11:14:11.205Z,1013.68
2018-06-19T11:15:11.173Z,1013.65
2018-06-19T11:16:11.180Z,1013.63
2018-06-19T11:17:11.187Z,1013.62
2018-06-19T11:18:11.193Z,1013.65
2018-06-19T11:19:11.200Z,1013.65
2018-06-19T11:20:11.207Z,1013.65
2018-06-19T11:21:11.214Z,1013.68
2018-06-19T11:22:11.220Z,1013.67
2018-06-19T11:23:11.228Z,1013.70
2018-06-19T11:24:11.235Z,1013.65
2018-06-19T11:25:11.240Z,1013.60
2018-06-19T11:26:11.248Z,1013.57
2018-06-19T11:27:11.258Z,1013.61
2018-06-19T11:28:11.261Z,1013.60
2018-06-19T11:29:11.268Z,1013.60
2018-06-19T11:30:11.275Z,1013.62
2018-06-19T11:31:11.281Z,1013.63
2018-06-19T11:32:11.289Z,1013.58
2018-06-19T11:33:11.295Z,1013.66
2018-06-19T11:34:11.301Z,1013.66
2018-06-19T11:35:11.309Z,1013.72
2018-06-19T11:36:11.315Z,1013.72
2018-06-19T11:37:11.322Z,1013.72
2018-06-19T11:38:11.335Z,1013.71
2018-06-19T11:39:11.334Z,1013.72
2018-06-19T11:40:11.342Z,1013.72
2018-06-19T11:41:11.349Z,1013.76
2018-06-19T11:42:11.355Z,1013.78
2018-06-19T11:43:11.361Z,1013.82
2018-06-19T11:44:11.368Z,1013.79
2018-06-19T11:45:11.376Z,1013.78
2018-06-19T11:46:11.382Z,1013.76
2018-06-19T11:47:11.389Z,1013.78
2018-06-19T11:48:11.395Z,1013.76
2018-06-19T11:49:11.427Z,1013.72
2018-06-19T11:50:11.412Z,1013.76
2018-06-19T11:51:11.416Z,1013.79
2018-06-19T11:52:11.423Z,1013.81
2018-06-19T11:53:11.430Z,1013.77
2018-06-19T11:54:11.436Z,1013.78
2018-06-19T11:55:11.443Z,1013.80
2018-06-19T11:56:11.451Z,1013.80
2018-06-19T11:57:11.458Z,1013.75
2018-06-19T11:58:11.463Z,1013.77
2018-06-19T11:59:11.471Z,1013.77
2018-06-19T12:00:11.481Z,1013.74
2018-06-19T12:01:11.544Z,1013.76
2018-06-19T12:02:11.490Z,1013.77
2018-06-19T12:03:11.497Z,1013.79
2018-06-19T12:04:11.506Z,1013.80
2018-06-19T12:05:11.513Z,1013.72